createdAt,value
2022-12-03T00:00:42.927Z,98525.41
2022-12-03T00:01:44.304Z,98523.06
2022-12-03T00:02:45.708Z,98522.00
2022-12-03T00:03:47.275Z,98518.34
2022-12-03T00:04:48.916Z,98520.16
2022-12-03T00:05:51.085Z,98515.47
2022-12-03T00:06:52.641Z,98520.88
2022-12-03T00:07:54.100Z,98514.84
2022-12-03T00:08:55.533Z,98521.13
2022-12-03T00:09:56.880Z,98521.44
2022-12-03T00:10:58.246Z,98520.34
2022-12-03T00:11:59.639Z,98520.59
2022-12-03T00:13:01.011Z,98521.63
2022-12-03T00:14:02.347Z,98520.31
2022-12-03T00:15:04.225Z,98519.25
2022-12-03T00:16:07.014Z,98517.44
2022-12-03T00:17:09.828Z,98517.69
2022-12-03T00:18:11.229Z,98519.53
2022-12-03T00:19:12.688Z,98519.53
2022-12-03T00:20:18.790Z,98520.56
2022-12-03T00:21:20.128Z,98517.13
2022-12-03T00:22:21.494Z,98517.13
2022-12-03T00:23:22.951Z,98518.72
2022-12-03T00:24:24.322Z,98517.94
2022-12-03T00:25:25.837Z,98520.00
2022-12-03T00:26:27.458Z,98524.75
2022-12-03T00:27:29.231Z,98523.22
2022-12-03T00:28:30.612Z,98525.84
2022-12-03T00:29:32.085Z,98522.97
2022-12-03T00:30:33.532Z,98530.81
2022-12-03T00:31:35.342Z,98519.56
2022-12-03T00:32:37.159Z,98522.19
2022-12-03T00:33:38.473Z,98511.72
2022-12-03T00:34:39.783Z,98523.75
2022-12-03T00:35:41.244Z,98509.84
2022-12-03T00:36:42.560Z,98522.19
2022-12-03T00:37:43.916Z,98523.75
2022-12-03T00:38:45.436Z,98522.72
2022-12-03T00:39:47.642Z,98524.28
2022-12-03T00:40:49.027Z,98521.66
2022-12-03T00:41:50.349Z,98528.50
2022-12-03T00:42:52.739Z,98524.84
2022-12-03T00:43:54.166Z,98524.59
2022-12-03T00:44:55.776Z,98529.34
2022-12-03T00:45:57.386Z,98528.28
2022-12-03T00:46:58.801Z,98528.81
2022-12-03T00:48:00.208Z,98525.97
2022-12-03T00:49:01.571Z,98535.38
2022-12-03T00:50:02.915Z,98535.13
2022-12-03T00:51:04.406Z,98530.69
2022-12-03T00:52:05.791Z,98533.84
2022-12-03T00:53:07.175Z,98532.56
2022-12-03T00:54:08.594Z,98532.56
2022-12-03T00:55:09.956Z,98531.47
2022-12-03T00:56:11.329Z,98535.72
2022-12-03T00:57:12.717Z,98534.94
2022-12-03T00:58:15.336Z,98530.75
2022-12-03T00:59:16.680Z,98538.88
2022-12-03T01:00:18.087Z,98532.38
2022-12-03T01:01:19.570Z,98533.94
2022-12-03T01:02:21.040Z,98534.72
2022-12-03T01:03:22.568Z,98531.06
2022-12-03T01:04:24.001Z,98536.56
2022-12-03T01:05:25.456Z,98530.50
2022-12-03T01:06:26.824Z,98534.69
2022-12-03T01:07:28.288Z,98534.69
2022-12-03T01:08:29.725Z,98531.03
2022-12-03T01:09:31.114Z,98534.97
2022-12-03T01:10:32.472Z,98530.00
2022-12-03T01:11:34.261Z,98531.84
2022-12-03T01:12:35.759Z,98541.28
2022-12-03T01:13:37.115Z,98531.84
2022-12-03T01:14:38.469Z,98536.88
2022-12-03T01:15:39.827Z,98533.47
2022-12-03T01:16:41.346Z,98534.75
2022-12-03T01:17:42.743Z,98535.03
2022-12-03T01:18:44.096Z,98535.25
2022-12-03T01:19:48.463Z,98539.69
2022-12-03T01:20:50.088Z,98529.47
2022-12-03T01:21:51.757Z,98537.34
2022-12-03T01:22:53.204Z,98533.94
2022-12-03T01:23:54.586Z,98531.84
2022-12-03T01:24:56.083Z,98535.81
2022-12-03T01:25:57.558Z,98541.38
2022-12-03T01:26:58.950Z,98532.69
2022-12-03T01:28:00.317Z,98539.00
2022-12-03T01:29:01.620Z,98539.50
2022-12-03T01:30:03.920Z,98534.00
2022-12-03T01:31:05.361Z,98536.13
2022-12-03T01:32:06.715Z,98538.25
2022-12-03T01:33:08.037Z,98534.31
2022-12-03T01:34:10.581Z,98536.94
2022-12-03T01:35:11.967Z,98544.56
2022-12-03T01:36:13.336Z,98541.41
2022-12-03T01:37:15.496Z,98540.56
2022-12-03T01:38:17.058Z,98533.22
2022-12-03T01:39:19.707Z,98539.75
2022-12-03T01:40:21.550Z,98542.34
2022-12-03T01:41:24.154Z,98536.84
2022-12-03T01:42:34.277Z,98531.41
2022-12-03T01:43:36.158Z,98530.88
2022-12-03T01:44:39.264Z,98534.78
2022-12-03T01:45:40.651Z,98535.59
2022-12-03T01:46:42.357Z,98537.16
2022-12-03T01:47:43.769Z,98541.59
2022-12-03T01:48:45.715Z,98532.69
2022-12-03T01:49:49.507Z,98540.81
2022-12-03T01:50:50.922Z,98537.91
2022-12-03T01:51:53.247Z,98530.06
2022-12-03T01:52:55.873Z,98534.28
2022-12-03T01:53:57.936Z,98535.28
2022-12-03T01:55:00.521Z,98540.28
2022-12-03T01:56:02.076Z,98532.19
2022-12-03T01:57:03.741Z,98545.53
2022-12-03T01:58:05.116Z,98539.28
2022-12-03T01:59:06.477Z,98539.25
2022-12-03T02:00:12.321Z,98540.81
2022-12-03T02:01:17.638Z,98541.88
2022-12-03T02:02:21.756Z,98537.41
2022-12-03T02:03:24.705Z,98537.41
2022-12-03T02:04:26.165Z,98541.88
2022-12-03T02:05:29.116Z,98534.47
2022-12-03T02:06:30.514Z,98538.75
2022-12-03T02:07:33.278Z,98538.47
2022-12-03T02:08:36.242Z,98538.72
2022-12-03T02:09:37.584Z,98542.63
2022-12-03T02:10:38.961Z,98547.31
2022-12-03T02:11:45.233Z,98538.47
2022-12-03T02:12:48.239Z,98537.69
2022-12-03T02:13:51.588Z,98544.97
2022-12-03T02:14:54.418Z,98541.28
2022-12-03T02:15:56.113Z,98537.41
2022-12-03T02:16:57.459Z,98546.03
2022-12-03T02:17:59.463Z,98540.25
2022-12-03T02:19:01.211Z,98546.50
2022-12-03T02:20:04.353Z,98538.91
2022-12-03T02:21:10.612Z,98543.91
2022-12-03T02:22:18.035Z,98539.44
2022-12-03T02:23:37.980Z,98541.00
2022-12-03T02:24:42.443Z,98537.59
2022-12-03T02:25:43.848Z,98537.34
2022-12-03T02:26:45.199Z,98545.19
2022-12-03T02:27:47.728Z,98542.31
2022-12-03T02:28:49.090Z,98536.59
2022-12-03T02:29:50.949Z,98531.06
2022-12-03T02:30:52.335Z,98533.19
2022-12-03T02:31:53.801Z,98533.97
2022-12-03T02:32:55.838Z,98534.75
2022-12-03T02:33:57.194Z,98525.81
2022-12-03T02:34:58.544Z,98532.09
2022-12-03T02:36:03.488Z,98537.59
2022-12-03T02:37:07.389Z,98528.44
2022-12-03T02:38:08.716Z,98530.31
2022-12-03T02:39:10.109Z,98529.22
2022-12-03T02:40:13.650Z,98536.03
2022-12-03T02:41:16.867Z,98527.66
2022-12-03T02:42:19.229Z,98529.22
2022-12-03T02:43:21.570Z,98525.81
2022-12-03T02:44:22.943Z,98526.34
2022-12-03T02:45:26.522Z,98522.13
2022-12-03T02:46:27.930Z,98535.47
2022-12-03T02:47:30.434Z,98536.81
2022-12-03T02:48:37.109Z,98521.09
2022-12-03T02:49:38.568Z,98534.72
2022-12-03T02:50:41.471Z,98530.06
2022-12-03T02:51:42.824Z,98529.03
2022-12-03T02:52:46.361Z,98535.06
2022-12-03T02:53:48.606Z,98528.72
2022-12-03T02:54:51.504Z,98540.03
2022-12-03T02:55:54.418Z,98535.06
2022-12-03T02:56:55.809Z,98536.63
2022-12-03T02:57:57.577Z,98539.75
2022-12-03T02:59:01.611Z,98542.09
2022-12-03T03:00:04.061Z,98541.56
2022-12-03T03:01:05.906Z,98537.38
2022-12-03T03:02:07.466Z,98535.28
2022-12-03T03:03:10.040Z,98537.38
2022-12-03T03:04:11.423Z,98534.50
2022-12-03T03:05:13.857Z,98527.69
2022-12-03T03:06:15.512Z,98535.81
2022-12-03T03:07:16.860Z,98537.38
2022-12-03T03:08:18.580Z,98532.41
2022-12-03T03:09:20.536Z,98537.91
2022-12-03T03:10:23.081Z,98532.44
2022-12-03T03:11:24.994Z,98537.38
2022-12-03T03:12:26.737Z,98540.50
2022-12-03T03:13:29.744Z,98533.41
2022-12-03T03:14:31.907Z,98538.44
2022-12-03T03:15:35.363Z,98542.31
2022-12-03T03:16:36.905Z,98539.13
2022-12-03T03:17:38.996Z,98539.13
2022-12-03T03:18:40.459Z,98537.31
2022-12-03T03:19:41.997Z,98541.25
2022-12-03T03:20:43.976Z,98539.19
2022-12-03T03:21:45.354Z,98536.84
2022-12-03T03:22:46.704Z,98533.47
2022-12-03T03:23:48.099Z,98543.91
2022-12-03T03:24:49.447Z,98530.59
2022-12-03T03:25:58.981Z,98542.09
2022-12-03T03:27:00.311Z,98539.47
2022-12-03T03:28:01.722Z,98532.41
2022-12-03T03:29:03.162Z,98532.63
2022-12-03T03:30:04.971Z,98533.16
2022-12-03T03:31:07.896Z,98528.69
2022-12-03T03:32:09.337Z,98534.75
2022-12-03T03:33:12.549Z,98540.50
2022-12-03T03:34:14.667Z,98539.22
2022-12-03T03:35:16.022Z,98542.31
2022-12-03T03:36:17.913Z,98537.63
2022-12-03T03:37:19.401Z,98541.28
2022-12-03T03:38:22.017Z,98540.50
2022-12-03T03:39:23.551Z,98530.22
2022-12-03T03:40:25.351Z,98534.72
2022-12-03T03:41:27.679Z,98532.38
2022-12-03T03:42:29.027Z,98534.47
2022-12-03T03:43:30.897Z,98532.41
2022-12-03T03:44:32.838Z,98535.53
2022-12-03T03:45:34.289Z,98528.19
2022-12-03T03:46:36.643Z,98528.47
2022-12-03T03:47:38.344Z,98528.72
2022-12-03T03:48:41.352Z,98537.59
2022-12-03T03:49:42.940Z,98539.97
2022-12-03T03:50:44.552Z,98533.41
2022-12-03T03:51:46.309Z,98533.94
2022-12-03T03:52:47.682Z,98540.72
2022-12-03T03:53:49.654Z,98539.66
2022-12-03T03:54:51.177Z,98539.13
2022-12-03T03:55:52.729Z,98532.03
2022-12-03T03:56:54.148Z,98534.91
2022-12-03T03:57:55.968Z,98528.31
2022-12-03T03:58:57.587Z,98534.91
2022-12-03T03:59:59.355Z,98526.25
2022-12-03T04:01:01.001Z,98527.28
2022-12-03T04:02:02.539Z,98528.84
2022-12-03T04:03:04.688Z,98529.41
2022-12-03T04:04:13.325Z,98529.72
2022-12-03T04:05:20.083Z,98526.03
2022-12-03T04:06:21.458Z,98523.66
2022-12-03T04:07:22.851Z,98524.25
2022-12-03T04:08:24.191Z,98521.63
2022-12-03T04:09:25.517Z,98523.72
2022-12-03T04:10:26.958Z,98517.94
2022-12-03T04:11:28.845Z,98527.63
2022-12-03T04:12:30.455Z,98520.25
2022-12-03T04:13:32.279Z,98517.63
2022-12-03T04:14:33.652Z,98518.41
2022-12-03T04:15:35.044Z,98522.59
2022-12-03T04:16:36.423Z,98513.25
2022-12-03T04:17:37.854Z,98513.78
2022-12-03T04:18:39.241Z,98508.75
2022-12-03T04:19:40.596Z,98517.66
2022-12-03T04:20:41.959Z,98515.06
2022-12-03T04:21:43.268Z,98526.03
2022-12-03T04:22:44.612Z,98514.22
2022-12-03T04:23:45.942Z,98513.19
2022-12-03T04:24:47.326Z,98515.00
2022-12-03T04:25:48.666Z,98514.50
2022-12-03T04:26:50.019Z,98511.13
2022-12-03T04:27:52.393Z,98508.75
2022-12-03T04:28:53.853Z,98509.56
2022-12-03T04:29:55.200Z,98508.75
2022-12-03T04:30:56.946Z,98500.63
2022-12-03T04:31:58.377Z,98500.06
2022-12-03T04:32:59.785Z,98514.19
2022-12-03T04:34:01.108Z,98500.56
2022-12-03T04:35:02.513Z,98497.69
2022-12-03T04:36:04.201Z,98500.88
2022-12-03T04:37:06.076Z,98507.41
2022-12-03T04:38:07.488Z,98509.78
2022-12-03T04:39:08.867Z,98505.59
2022-12-03T04:40:10.305Z,98508.47
2022-12-03T04:41:11.672Z,98504.28
2022-12-03T04:42:13.076Z,98513.44
2022-12-03T04:43:14.437Z,98510.31
2022-12-03T04:44:15.760Z,98512.16
2022-12-03T04:45:17.157Z,98508.75
2022-12-03T04:46:18.572Z,98508.75
2022-12-03T04:47:21.256Z,98503.53
2022-12-03T04:48:22.604Z,98515.00
2022-12-03T04:49:24.192Z,98514.22
2022-12-03T04:50:25.562Z,98514.00
2022-12-03T04:51:26.905Z,98511.13
2022-12-03T04:52:28.260Z,98510.34
2022-12-03T04:53:29.581Z,98509.28
2022-12-03T04:54:31.041Z,98512.69
2022-12-03T04:55:32.387Z,98519.28
2022-12-03T04:56:33.748Z,98515.06
2022-12-03T04:57:35.078Z,98515.59
2022-12-03T04:58:36.410Z,98509.31
2022-12-03T04:59:38.227Z,98509.31
2022-12-03T05:00:39.548Z,98508.53
2022-12-03T05:01:40.963Z,98507.75
2022-12-03T05:02:42.393Z,98506.22
2022-12-03T05:03:43.764Z,98504.09
2022-12-03T05:04:45.137Z,98510.09
2022-12-03T05:05:46.552Z,98512.72
2022-12-03T05:06:47.918Z,98510.09
2022-12-03T05:07:49.331Z,98506.44
2022-12-03T05:08:50.772Z,98512.47
2022-12-03T05:09:52.143Z,98510.09
2022-12-03T05:10:53.573Z,98510.16
2022-12-03T05:11:54.932Z,98511.44
2022-12-03T05:12:56.666Z,98502.56
2022-12-03T05:13:58.173Z,98504.69
2022-12-03T05:14:59.554Z,98504.41
2022-12-03T05:16:00.910Z,98505.19
2022-12-03T05:17:02.412Z,98503.06
2022-12-03T05:18:06.012Z,98508.09
2022-12-03T05:19:07.751Z,98510.41
2022-12-03T05:20:09.379Z,98500.41
2022-12-03T05:21:10.760Z,98499.13
2022-12-03T05:22:12.180Z,98503.00
2022-12-03T05:23:14.208Z,98497.53
2022-12-03T05:24:15.639Z,98504.84
2022-12-03T05:25:17.036Z,98499.88
2022-12-03T05:26:18.437Z,98503.78
2022-12-03T05:27:23.708Z,98501.47
2022-12-03T05:28:25.654Z,98498.31
2022-12-03T05:29:27.063Z,98494.91
2022-12-03T05:30:28.501Z,98498.63
2022-12-03T05:31:31.408Z,98490.72
2022-12-03T05:32:32.921Z,98493.63
2022-12-03T05:33:35.584Z,98495.94
2022-12-03T05:34:38.808Z,98494.09
2022-12-03T05:35:40.159Z,98497.28
2022-12-03T05:36:41.520Z,98496.75
2022-12-03T05:37:43.159Z,98496.56
2022-12-03T05:38:44.532Z,98496.56
2022-12-03T05:39:45.900Z,98499.44
2022-12-03T05:40:50.405Z,98497.88
2022-12-03T05:41:51.726Z,98495.25
2022-12-03T05:42:53.078Z,98495.22
2022-12-03T05:43:54.659Z,98493.13
2022-12-03T05:44:56.309Z,98487.63
2022-12-03T05:45:57.900Z,98490.72
2022-12-03T05:46:59.327Z,98491.81
2022-12-03T05:48:01.241Z,98482.38
2022-12-03T05:49:02.637Z,98485.53
2022-12-03T05:50:04.239Z,98483.44
2022-12-03T05:51:05.595Z,98476.66
2022-12-03T05:52:07.019Z,98475.06
2022-12-03T05:53:08.460Z,98475.31
2022-12-03T05:54:09.865Z,98475.56
2022-12-03T05:55:11.317Z,98479.47
2022-12-03T05:56:12.694Z,98481.31
2022-12-03T05:57:14.144Z,98474.25
2022-12-03T05:58:15.487Z,98478.44
2022-12-03T05:59:16.830Z,98468.75
2022-12-03T06:00:29.500Z,98473.19
2022-12-03T06:01:30.870Z,98478.44
2022-12-03T06:02:32.406Z,98481.31
2022-12-03T06:03:34.886Z,98478.44
2022-12-03T06:04:36.312Z,98477.41
2022-12-03T06:05:37.653Z,98477.13
2022-12-03T06:06:39.146Z,98481.28
2022-12-03T06:07:40.912Z,98481.28
2022-12-03T06:08:42.347Z,98478.66
2022-12-03T06:09:43.744Z,98474.50
2022-12-03T06:10:45.063Z,98478.69
2022-12-03T06:11:46.469Z,98479.44
2022-12-03T06:12:47.800Z,98483.09
2022-12-03T06:13:51.063Z,98480.53
2022-12-03T06:14:53.407Z,98478.94
2022-12-03T06:15:55.060Z,98485.50
2022-12-03T06:16:56.447Z,98490.72
2022-12-03T06:17:58.275Z,98488.13
2022-12-03T06:18:59.622Z,98485.22
2022-12-03T06:20:01.028Z,98491.25
2022-12-03T06:21:02.391Z,98494.41
2022-12-03T06:22:03.793Z,98492.03
2022-12-03T06:23:05.280Z,98488.88
2022-12-03T06:24:06.714Z,98487.06
2022-12-03T06:25:08.324Z,98489.38
2022-12-03T06:26:10.440Z,98490.47
2022-12-03T06:27:11.988Z,98492.81
2022-12-03T06:28:13.344Z,98491.53
2022-12-03T06:29:14.721Z,98494.69
2022-12-03T06:30:16.138Z,98496.53
2022-12-03T06:31:17.581Z,98497.06
2022-12-03T06:32:18.957Z,98492.59
2022-12-03T06:33:20.311Z,98495.22
2022-12-03T06:34:21.707Z,98501.22
2022-12-03T06:35:23.195Z,98502.50
2022-12-03T06:36:24.620Z,98508.00
2022-12-03T06:37:26.123Z,98504.56
2022-12-03T06:38:27.483Z,98503.31
2022-12-03T06:39:28.946Z,98511.16
2022-12-03T06:40:30.372Z,98515.59
2022-12-03T06:41:31.728Z,98513.78
2022-12-03T06:42:33.137Z,98514.56
2022-12-03T06:43:34.551Z,98506.75
2022-12-03T06:44:35.949Z,98504.63
2022-12-03T06:45:37.713Z,98502.59
2022-12-03T06:46:39.194Z,98508.91
2022-12-03T06:47:40.620Z,98500.50
2022-12-03T06:48:41.942Z,98509.66
2022-12-03T06:49:43.341Z,98510.94
2022-12-03T06:50:44.689Z,98520.88
2022-12-03T06:51:46.046Z,98508.09
2022-12-03T06:52:47.400Z,98512.00
2022-12-03T06:53:48.726Z,98514.63
2022-12-03T06:54:50.104Z,98517.00
2022-12-03T06:55:51.487Z,98514.09
2022-12-03T06:56:52.851Z,98519.56
2022-12-03T06:57:54.212Z,98522.44
2022-12-03T06:58:55.669Z,98520.63
2022-12-03T06:59:57.038Z,98527.44
2022-12-03T07:00:58.416Z,98525.63
2022-12-03T07:02:00.001Z,98527.44
2022-12-03T07:03:01.479Z,98521.22
2022-12-03T07:04:05.253Z,98520.47
2022-12-03T07:05:06.800Z,98522.28
2022-12-03T07:06:08.132Z,98519.13
2022-12-03T07:07:09.496Z,98520.94
2022-12-03T07:08:13.052Z,98518.34
2022-12-03T07:09:14.632Z,98519.41
2022-12-03T07:10:19.199Z,98525.69
2022-12-03T07:11:22.927Z,98514.94
2022-12-03T07:12:24.404Z,98516.75
2022-12-03T07:13:25.764Z,98519.94
2022-12-03T07:14:27.173Z,98517.06
2022-12-03T07:15:28.591Z,98507.59
2022-12-03T07:16:29.964Z,98516.75
2022-12-03T07:17:31.317Z,98509.44
2022-12-03T07:18:32.718Z,98504.75
2022-12-03T07:19:34.073Z,98507.06
2022-12-03T07:20:35.439Z,98499.97
2022-12-03T07:21:36.814Z,98504.69
2022-12-03T07:22:38.240Z,98501.25
2022-12-03T07:23:39.629Z,98507.59
2022-12-03T07:24:41.045Z,98499.75
2022-12-03T07:25:42.534Z,98498.16
2022-12-03T07:26:43.916Z,98498.44
2022-12-03T07:27:45.273Z,98501.56
2022-12-03T07:28:47.055Z,98494.22
2022-12-03T07:29:48.532Z,98494.72
2022-12-03T07:30:49.947Z,98493.19
2022-12-03T07:31:54.398Z,98502.88
2022-12-03T07:32:55.817Z,98498.72
2022-12-03T07:33:59.536Z,98504.72
2022-12-03T07:35:00.991Z,98497.34
2022-12-03T07:36:02.419Z,98497.34
2022-12-03T07:37:03.771Z,98499.19
2022-12-03T07:38:07.729Z,98500.75
2022-12-03T07:39:09.143Z,98503.13
2022-12-03T07:40:10.857Z,98496.59
2022-12-03T07:41:12.217Z,98503.16
2022-12-03T07:42:13.610Z,98496.38
2022-12-03T07:43:15.046Z,98501.34
2022-12-03T07:44:16.479Z,98504.75
2022-12-03T07:45:17.965Z,98502.91
2022-12-03T07:46:19.406Z,98500.53
2022-12-03T07:47:20.831Z,98502.13
2022-12-03T07:48:22.158Z,98507.59
2022-12-03T07:49:23.633Z,98500.78
2022-12-03T07:50:25.152Z,98492.66
2022-12-03T07:51:31.988Z,98496.09
2022-12-03T07:52:33.782Z,98491.09
2022-12-03T07:53:35.185Z,98491.13
2022-12-03T07:54:36.617Z,98497.44
2022-12-03T07:55:37.990Z,98492.19
2022-12-03T07:56:39.449Z,98492.97
2022-12-03T07:57:40.862Z,98493.50
2022-12-03T07:58:42.256Z,98491.69
2022-12-03T07:59:43.672Z,98497.97
2022-12-03T08:00:45.264Z,98498.50
2022-12-03T08:01:46.706Z,98496.38
2022-12-03T08:02:48.222Z,98498.97
2022-12-03T08:03:49.766Z,98503.72
2022-12-03T08:04:51.461Z,98495.09
2022-12-03T08:05:53.178Z,98498.22
2022-12-03T08:06:54.728Z,98502.41
2022-12-03T08:07:56.233Z,98500.34
2022-12-03T08:08:57.596Z,98497.97
2022-12-03T08:09:59.084Z,98496.38
2022-12-03T08:11:00.846Z,98505.31
2022-12-03T08:12:06.308Z,98500.38
2022-12-03T08:13:11.399Z,98499.56
2022-12-03T08:14:13.684Z,98500.84
2022-12-03T08:15:16.483Z,98503.47
2022-12-03T08:16:19.602Z,98506.88
2022-12-03T08:17:21.293Z,98500.34
2022-12-03T08:18:24.303Z,98505.88
2022-12-03T08:19:26.760Z,98502.22
2022-12-03T08:20:29.521Z,98502.19
2022-12-03T08:21:34.430Z,98504.28
2022-12-03T08:22:35.799Z,98504.06
2022-12-03T08:23:37.422Z,98507.47
2022-12-03T08:24:38.838Z,98505.34
2022-12-03T08:25:40.199Z,98512.16
2022-12-03T08:26:41.922Z,98510.88
2022-12-03T08:27:43.367Z,98513.25
2022-12-03T08:28:44.802Z,98514.81
2022-12-03T08:29:46.627Z,98507.50
2022-12-03T08:31:02.514Z,98505.69
2022-12-03T08:32:06.046Z,98508.06
2022-12-03T08:33:16.002Z,98499.44
2022-12-03T08:34:20.418Z,98501.78
2022-12-03T08:35:23.377Z,98499.41
2022-12-03T08:36:32.690Z,98507.56
2022-12-03T08:37:35.764Z,98510.16
2022-12-03T08:38:37.194Z,98505.19
2022-12-03T08:39:43.902Z,98506.75
2022-12-03T08:40:45.959Z,98508.88
2022-12-03T08:41:53.605Z,98503.88
2022-12-03T08:42:55.004Z,98503.88
2022-12-03T08:43:58.776Z,98504.97
2022-12-03T08:45:20.041Z,98514.63
2022-12-03T08:46:24.311Z,98517.53
2022-12-03T08:47:26.033Z,98502.31
2022-12-03T08:48:29.263Z,98502.56
2022-12-03T08:49:30.717Z,98502.06
2022-12-03T08:50:39.744Z,98502.84
2022-12-03T08:51:41.117Z,98509.41
2022-12-03T08:52:42.531Z,98501.00
2022-12-03T08:53:46.169Z,98502.34
2022-12-03T08:54:57.242Z,98496.84
2022-12-03T08:56:01.959Z,98506.78
2022-12-03T08:57:21.801Z,98497.63
2022-12-03T08:58:42.017Z,98496.34
2022-12-03T08:59:45.572Z,98494.22
2022-12-03T09:00:53.984Z,98492.16
2022-12-03T09:01:55.908Z,98493.22
2022-12-03T09:03:00.267Z,98499.25
2022-12-03T09:04:20.318Z,98495.84
2022-12-03T09:05:29.952Z,98496.09
2022-12-03T09:06:31.347Z,98498.50
2022-12-03T09:07:32.809Z,98492.72
2022-12-03T09:08:34.292Z,98497.19
2022-12-03T09:09:35.723Z,98494.03
2022-12-03T09:10:37.838Z,98497.44
2022-12-03T09:11:42.422Z,98494.56
2022-12-03T09:12:43.790Z,98497.97
2022-12-03T09:13:47.955Z,98493.78
2022-12-03T09:14:49.383Z,98493.50
2022-12-03T09:15:50.875Z,98496.09
2022-12-03T09:16:52.900Z,98497.19
2022-12-03T09:17:54.383Z,98499.81
2022-12-03T09:18:55.691Z,98502.16
2022-12-03T09:19:57.047Z,98501.66
2022-12-03T09:20:58.512Z,98497.47
2022-12-03T09:21:59.867Z,98495.09
2022-12-03T09:23:01.284Z,98502.44
2022-12-03T09:24:02.616Z,98499.31
2022-12-03T09:25:04.086Z,98494.09
2022-12-03T09:26:05.528Z,98492.75
2022-12-03T09:27:06.985Z,98493.03
2022-12-03T09:28:08.430Z,98504.56
2022-12-03T09:29:12.357Z,98503.78
2022-12-03T09:30:14.398Z,98504.03
2022-12-03T09:31:16.476Z,98498.78
2022-12-03T09:32:18.768Z,98503.00
2022-12-03T09:33:20.498Z,98500.09
2022-12-03T09:34:21.826Z,98502.72
2022-12-03T09:35:23.477Z,98506.63
2022-12-03T09:36:24.854Z,98501.41
2022-12-03T09:37:26.236Z,98504.03
2022-12-03T09:38:27.692Z,98500.63
2022-12-03T09:39:29.318Z,98501.16
2022-12-03T09:40:30.864Z,98496.97
2022-12-03T09:41:32.363Z,98500.09
2022-12-03T09:42:33.940Z,98493.81
2022-12-03T09:44:02.586Z,98493.81
2022-12-03T09:44:57.691Z,98491.47
2022-12-03T09:45:59.948Z,98496.44
2022-12-03T09:47:03.010Z,98493.81
2022-12-03T09:48:04.629Z,98493.81
2022-12-03T09:49:12.334Z,98496.72
2022-12-03T09:50:20.802Z,98490.91
2022-12-03T09:51:23.541Z,98496.97
2022-12-03T09:52:27.166Z,98490.69
2022-12-03T09:53:29.042Z,98483.59
2022-12-03T09:54:31.512Z,98481.75
2022-12-03T09:55:32.903Z,98480.97
2022-12-03T09:56:36.798Z,98477.59
2022-12-03T09:57:38.280Z,98469.47
2022-12-03T09:58:39.639Z,98466.56
2022-12-03T09:59:40.942Z,98468.94
2022-12-03T10:00:43.677Z,98469.69
2022-12-03T10:01:45.261Z,98472.84
2022-12-03T10:02:47.419Z,98475.47
2022-12-03T10:03:52.048Z,98475.25
2022-12-03T10:04:53.636Z,98467.09
2022-12-03T10:05:55.266Z,98480.44
2022-12-03T10:06:58.203Z,98478.88
2022-12-03T10:08:07.567Z,98473.41
2022-12-03T10:09:11.448Z,98471.03
2022-12-03T10:10:20.714Z,98472.06
2022-12-03T10:11:24.106Z,98475.50
2022-12-03T10:12:26.142Z,98469.22
2022-12-03T10:13:28.788Z,98472.13
2022-12-03T10:14:30.162Z,98475.00
2022-12-03T10:15:32.332Z,98474.22
2022-12-03T10:16:41.342Z,98472.09
2022-12-03T10:17:42.770Z,98474.22
2022-12-03T10:18:46.874Z,98471.88
2022-12-03T10:19:48.334Z,98476.84
2022-12-03T10:20:50.954Z,98473.72
2022-12-03T10:21:52.378Z,98474.75
2022-12-03T10:24:18.917Z,98473.47
2022-12-03T10:25:22.718Z,98473.47
2022-12-03T10:26:39.713Z,98469.00
2022-12-03T10:27:41.393Z,98463.25
2022-12-03T10:28:43.726Z,98469.50
2022-12-03T10:29:53.211Z,98464.03
2022-12-03T10:30:55.730Z,98460.63
2022-12-03T10:32:01.542Z,98464.31
2022-12-03T10:33:14.345Z,98456.44
2022-12-03T10:34:23.600Z,98456.94
2022-12-03T10:35:40.627Z,98463.75
2022-12-03T10:36:42.052Z,98463.75
2022-12-03T10:38:02.200Z,98465.31
2022-12-03T10:39:11.556Z,98457.44
2022-12-03T10:40:13.082Z,98463.75
2022-12-03T10:41:24.980Z,98460.63
2022-12-03T10:42:27.366Z,98464.81
2022-12-03T10:43:28.749Z,98467.16
2022-12-03T10:44:33.552Z,98470.84
2022-12-03T10:45:34.919Z,98464.53
2022-12-03T10:46:36.492Z,98461.63
2022-12-03T10:47:38.111Z,98458.78
2022-12-03T10:48:39.640Z,98470.03
2022-12-03T10:49:41.833Z,98454.53
2022-12-03T10:50:50.831Z,98465.84
2022-12-03T10:51:52.253Z,98457.72
2022-12-03T10:52:53.863Z,98458.75
2022-12-03T10:53:55.312Z,98448.25
2022-12-03T10:54:56.865Z,98450.34
2022-12-03T10:56:03.233Z,98462.16
2022-12-03T10:57:04.677Z,98453.50
2022-12-03T10:58:08.361Z,98446.94
2022-12-03T10:59:32.852Z,98449.28
2022-12-03T11:00:34.867Z,98450.31
2022-12-03T11:01:36.316Z,98438.00
2022-12-03T11:02:37.751Z,98428.03
2022-12-03T11:03:39.194Z,98440.09
2022-12-03T11:04:40.648Z,98443.78
2022-12-03T11:05:42.104Z,98435.91
2022-12-03T11:06:43.492Z,98437.72
2022-12-03T11:07:44.940Z,98435.91
2022-12-03T11:08:58.359Z,98440.88
2022-12-03T11:10:01.846Z,98423.03
2022-12-03T11:11:07.896Z,98426.72
2022-12-03T11:12:17.646Z,98428.03
2022-12-03T11:13:29.654Z,98422.78
2022-12-03T11:14:49.397Z,98422.25
2022-12-03T11:15:50.836Z,98414.13
2022-12-03T11:16:52.251Z,98414.94
2022-12-03T11:17:54.036Z,98422.25
2022-12-03T11:18:55.510Z,98423.81
2022-12-03T11:20:00.266Z,98420.41
2022-12-03T11:21:07.355Z,98425.13
2022-12-03T11:22:08.691Z,98419.41
2022-12-03T11:23:10.612Z,98419.41
2022-12-03T11:24:16.579Z,98419.41
2022-12-03T11:25:26.686Z,98417.28
2022-12-03T11:26:28.101Z,98412.56
2022-12-03T11:27:29.459Z,98418.06
2022-12-03T11:28:31.620Z,98417.56
2022-12-03T11:29:48.350Z,98413.59
2022-12-03T11:30:49.738Z,98417.28
2022-12-03T11:31:52.891Z,98419.91
2022-12-03T11:32:54.265Z,98419.91
2022-12-03T11:34:15.691Z,98416.22
2022-12-03T11:35:22.881Z,98411.25
2022-12-03T11:36:42.152Z,98407.06
2022-12-03T11:37:45.634Z,98404.94
2022-12-03T11:38:52.817Z,98399.69
2022-12-03T11:39:55.043Z,98410.97
2022-12-03T11:41:25.898Z,98409.69
2022-12-03T11:42:28.742Z,98414.66
2022-12-03T11:43:48.505Z,98411.50
2022-12-03T11:45:09.767Z,98407.28
2022-12-03T11:46:11.232Z,98404.16
2022-12-03T11:47:14.733Z,98411.50
2022-12-03T11:48:17.006Z,98403.63
2022-12-03T11:49:21.333Z,98408.63
2022-12-03T11:50:27.482Z,98412.03
2022-12-03T11:51:29.384Z,98405.19
2022-12-03T11:52:32.869Z,98402.81
2022-12-03T11:53:35.103Z,98403.88
2022-12-03T11:54:36.619Z,98412.50
2022-12-03T11:55:39.423Z,98403.88
2022-12-03T11:56:44.035Z,98405.41
2022-12-03T11:57:45.743Z,98404.38
2022-12-03T11:58:47.581Z,98409.09
2022-12-03T12:00:03.997Z,98404.13
2022-12-03T12:01:13.975Z,98401.22
2022-12-03T12:02:21.555Z,98390.47
2022-12-03T12:03:23.008Z,98399.91
2022-12-03T12:04:29.388Z,98388.91
2022-12-03T12:05:32.083Z,98390.25
2022-12-03T12:06:42.265Z,98393.13
2022-12-03T12:07:44.075Z,98383.16
2022-12-03T12:08:51.430Z,98382.63
2022-12-03T12:09:55.831Z,98380.81
2022-12-03T12:10:57.877Z,98382.41
2022-12-03T12:12:17.277Z,98382.13
2022-12-03T12:13:30.749Z,98383.97
2022-12-03T12:14:32.236Z,98383.16
2022-12-03T12:15:39.833Z,98376.38
2022-12-03T12:16:42.914Z,98383.41
2022-12-03T12:17:44.473Z,98381.59
2022-12-03T12:18:52.406Z,98374.50
2022-12-03T12:20:31.974Z,98378.41